Time,TemperatureF,DewpointF,PressureIn,WindDirection,WindDirectionDegrees,WindSpeedMPH,WindSpeedGustMPH,Humidity,HourlyPrecipIn,Conditions,Clouds,dailyrainin,SoftwareType,DateUTC
2013-10-27 00:01:00,63.6,26.2,30.02,NNW,329,0.0,1.0,24,0.00,,---,0.00,VWS V14.01,2013-10-27 07:01:00,
2013-10-27 00:06:00,63.4,27.0,30.03,NW,321,0.0,0.0,25,0.00,,---,0.00,VWS V14.01,2013-10-27 07:06:00,
2013-10-27 00:11:00,63.2,25.8,30.02,North,360,0.0,1.0,24,0.00,,---,0.00,VWS V14.01,2013-10-27 07:11:00,
2013-10-27 00:16:00,63.5,26.1,30.02,North,360,0.0,0.0,24,0.00,,---,0.00,VWS V14.01,2013-10-27 07:16:00,
2013-10-27 00:21:00,63.6,26.2,30.02,North,5,0.0,0.0,24,0.00,,---,0.00,VWS V14.01,2013-10-27 07:21:00,
2013-10-27 00:26:00,63.8,26.3,30.02,North,5,0.0,0.0,24,0.00,,---,0.00,VWS V14.01,2013-10-27 07:26:00,
2013-10-27 00:31:00,63.9,26.4,30.02,North,5,0.0,0.0,24,0.00,,---,0.00,VWS V14.01,2013-10-27 07:31:00,
2013-10-27 00:36:00,63.4,27.0,30.02,North,5,0.0,0.0,25,0.00,,---,0.00,VWS V14.01,2013-10-27 07:36:00,
2013-10-27 00:41:00,62.5,27.2,30.02,North,5,0.0,0.0,26,0.00,,---,0.00,VWS V14.01,2013-10-27 07:41:00,
2013-10-27 00:46:00,61.8,27.5,30.01,North,5,0.0,0.0,27,0.00,,---,0.00,VWS V14.01,2013-10-27 07:46:00,
2013-10-27 00:51:00,61.3,27.1,30.01,North,5,0.0,0.0,27,0.00,,---,0.00,VWS V14.01,2013-10-27 07:51:00,
2013-10-27 00:56:00,60.9,26.7,30.01,SE,139,0.0,1.0,27,0.00,,---,0.00,VWS V14.01,2013-10-27 07:56:00,
2013-10-27 01:01:00,60.3,27.1,30.01,SSW,204,0.0,1.0,28,0.00,,---,0.00,VWS V14.01,2013-10-27 08:01:00,
2013-10-27 01:06:00,59.8,26.6,30.01,SSW,204,0.0,0.0,28,0.00,,---,0.00,VWS V14.01,2013-10-27 08:06:00,
2013-10-27 01:11:00,59.4,27.2,30.01,SW,225,0.0,0.0,29,0.00,,---,0.00,VWS V14.01,2013-10-27 08:11:00,
2013-10-27 01:16:00,59.2,27.0,30.01,SW,225,0.0,0.0,29,0.00,,---,0.00,VWS V14.01,2013-10-27 08:16:00,
2013-10-27 01:21:00,58.8,27.5,30.01,SW,232,0.0,0.0,30,0.00,,---,0.00,VWS V14.01,2013-10-27 08:21:00,
2013-10-27 01:26:00,58.5,28.0,30.01,SW,232,0.0,0.0,31,0.00,,---,0.00,VWS V14.01,2013-10-27 08:26:00,
2013-10-27 01:31:00,58.5,28.0,30.00,West,277,0.0,0.0,31,0.00,,---,0.00,VWS V14.01,2013-10-27 08:31:00,
2013-10-27 01:36:00,58.6,28.1,30.00,West,277,0.0,0.0,31,0.00,,---,0.00,VWS V14.01,2013-10-27 08:36:00,
2013-10-27 01:41:00,58.5,29.5,30.01,West,277,0.0,0.0,33,0.00,,---,0.00,VWS V14.01,2013-10-27 08:41:00,
2013-10-27 01:46:00,58.0,28.3,30.01,West,277,0.0,0.0,32,0.00,,---,0.00,VWS V14.01,2013-10-27 08:46:00,
2013-10-27 01:51:00,57.6,28.7,30.00,West,277,0.0,0.0,33,0.00,,---,0.00,VWS V14.01,2013-10-27 08:51:00,
2013-10-27 01:56:00,57.3,28.5,30.00,West,277,0.0,0.0,33,0.00,,---,0.00,VWS V14.01,2013-10-27 08:56:00,
2013-10-27 02:01:00,57.6,28.0,30.00,West,277,0.0,0.0,32,0.00,,---,0.00,VWS V14.01,2013-10-27 09:01:00,
2013-10-27 02:06:00,57.8,28.9,29.99,West,277,0.0,0.0,33,0.00,,---,0.00,VWS V14.01,2013-10-27 09:06:00,
2013-10-27 02:11:00,57.8,30.4,29.99,West,277,0.0,0.0,35,0.00,,---,0.00,VWS V14.01,2013-10-27 09:11:00,
2013-10-27 02:16:00,57.3,30.6,29.99,West,277,0.0,0.0,36,0.00,,---,0.00,VWS V14.01,2013-10-27 09:16:00,
2013-10-27 02:21:00,56.7,30.7,29.99,West,277,0.0,0.0,37,0.00,,---,0.00,VWS V14.01,2013-10-27 09:21:00,
2013-10-27 02:26:00,56.5,32.5,29.99,West,277,0.0,0.0,40,0.00,,---,0.00,VWS V14.01,2013-10-27 09:26:00,
2013-10-27 02:31:00,56.4,33.0,29.99,West,277,0.0,0.0,41,0.00,,---,0.00,VWS V14.01,2013-10-27 09:31:00,
2013-10-27 02:36:00,56.3,35.2,29.99,West,277,0.0,0.0,45,0.00,,---,0.00,VWS V14.01,2013-10-27 09:36:00,
2013-10-27 02:41:00,56.0,34.4,29.98,West,277,0.0,0.0,44,0.00,,---,0.00,VWS V14.01,2013-10-27 09:41:00,
2013-10-27 02:46:00,55.9,34.9,29.98,West,277,0.0,0.0,45,0.00,,---,0.00,VWS V14.01,2013-10-27 09:46:00,
2013-10-27 02:51:00,55.8,36.9,29.98,West,277,0.0,0.0,49,0.00,,---,0.00,VWS V14.01,2013-10-27 09:51:00,
2013-10-27 02:56:00,55.7,35.3,29.98,West,277,0.0,0.0,46,0.00,,---,0.00,VWS V14.01,2013-10-27 09:56:00,
2013-10-27 03:01:00,55.5,34.5,29.98,West,277,0.0,0.0,45,0.00,,---,0.00,VWS V14.01,2013-10-27 10:01:00,
2013-10-27 03:06:00,55.6,34.6,29.98,West,277,0.0,0.0,45,0.00,,---,0.00,VWS V14.01,2013-10-27 10:06:00,
2013-10-27 03:11:00,55.7,36.8,29.98,West,277,0.0,0.0,49,0.00,,---,0.00,VWS V14.01,2013-10-27 10:11:00,
2013-10-27 03:16:00,55.8,33.1,29.98,West,277,0.0,0.0,42,0.00,,---,0.00,VWS V14.01,2013-10-27 10:16:00,
2013-10-27 03:21:00,56.1,33.9,29.98,West,277,0.0,0.0,43,0.00,,---,0.00,VWS V14.01,2013-10-27 10:21:00,
2013-10-27 03:26:00,56.3,34.1,29.98,West,277,0.0,0.0,43,0.00,,---,0.00,VWS V14.01,2013-10-27 10:26:00,
2013-10-27 03:31:00,56.4,34.2,29.98,West,277,0.0,0.0,43,0.00,,---,0.00,VWS V14.01,2013-10-27 10:31:00,
2013-10-27 03:36:00,56.9,33.5,29.98,West,277,0.0,0.0,41,0.00,,---,0.00,VWS V14.01,2013-10-27 10:36:00,
2013-10-27 03:41:00,57.3,35.0,29.98,West,277,0.0,0.0,43,0.00,,---,0.00,VWS V14.01,2013-10-27 10:41:00,
2013-10-27 03:46:00,57.3,35.0,29.98,West,277,0.0,0.0,43,0.00,,---,0.00,VWS V14.01,2013-10-27 10:46:00,
2013-10-27 03:51:00,57.2,31.8,29.98,West,277,0.0,0.0,38,0.00,,---,0.00,VWS V14.01,2013-10-27 10:51:00,
2013-10-27 03:56:00,57.4,32.0,29.97,West,277,0.0,0.0,38,0.00,,---,0.00,VWS V14.01,2013-10-27 10:56:00,
2013-10-27 04:01:00,57.7,34.2,29.97,West,277,0.0,0.0,41,0.00,,---,0.00,VWS V14.01,2013-10-27 11:01:00,
2013-10-27 04:06:00,57.5,34.6,29.97,West,277,0.0,0.0,42,0.00,,---,0.00,VWS V14.01,2013-10-27 11:06:00,
2013-10-27 04:11:00,57.3,34.4,29.97,West,277,0.0,0.0,42,0.00,,---,0.00,VWS V14.01,2013-10-27 11:11:00,
2013-10-27 04:16:00,57.4,35.7,29.97,West,277,0.0,0.0,44,0.00,,---,0.00,VWS V14.01,2013-10-27 11:16:00,
2013-10-27 04:21:00,57.0,35.3,29.97,West,277,0.0,0.0,44,0.00,,---,0.00,VWS V14.01,2013-10-27 11:21:00,
2013-10-27 04:26:00,56.6,35.0,29.96,West,277,0.0,0.0,44,0.00,,---,0.00,VWS V14.01,2013-10-27 11:26:00,
2013-10-27 04:31:00,56.4,34.8,29.96,West,277,0.0,0.0,44,0.00,,---,0.00,VWS V14.01,2013-10-27 11:31:00,
2013-10-27 04:36:00,56.5,34.9,29.96,West,277,0.0,0.0,44,0.00,,---,0.00,VWS V14.01,2013-10-27 11:36:00,
2013-10-27 04:41:00,56.8,35.1,29.96,West,277,0.0,0.0,44,0.00,,---,0.00,VWS V14.01,2013-10-27 11:41:00,
2013-10-27 04:46:00,56.9,35.8,29.96,West,277,0.0,0.0,45,0.00,,---,0.00,VWS V14.01,2013-10-27 11:46:00,
2013-10-27 04:51:00,56.8,34.0,29.96,West,277,0.0,0.0,42,0.00,,---,0.00,VWS V14.01,2013-10-27 11:51:00,
2013-10-27 04:56:00,56.7,36.2,29.96,West,277,0.0,0.0,46,0.00,,---,0.00,VWS V14.01,2013-10-27 11:56:00,
2013-10-27 05:01:00,56.4,35.9,29.96,West,277,0.0,0.0,46,0.00,,---,0.00,VWS V14.01,2013-10-27 12:01:00,
2013-10-27 05:06:00,55.9,35.4,29.96,West,277,0.0,0.0,46,0.00,,---,0.00,VWS V14.01,2013-10-27 12:06:00,
2013-10-27 05:11:00,55.8,35.9,29.96,West,277,0.0,0.0,47,0.00,,---,0.00,VWS V14.01,2013-10-27 12:11:00,
2013-10-27 05:16:00,55.8,35.9,29.96,West,277,0.0,0.0,47,0.00,,---,0.00,VWS V14.01,2013-10-27 12:16:00,
2013-10-27 05:21:00,55.8,35.3,29.96,West,277,0.0,0.0,46,0.00,,---,0.00,VWS V14.01,2013-10-27 12:21:00,
2013-10-27 05:26:00,55.8,33.7,29.96,West,277,0.0,0.0,43,0.00,,---,0.00,VWS V14.01,2013-10-27 12:26:00,
2013-10-27 05:31:00,55.9,33.2,29.96,West,277,0.0,0.0,42,0.00,,---,0.00,VWS V14.01,2013-10-27 12:31:00,
2013-10-27 05:36:00,56.0,34.4,29.96,West,277,0.0,0.0,44,0.00,,---,0.00,VWS V14.01,2013-10-27 12:36:00,
2013-10-27 05:41:00,56.1,33.3,29.96,West,277,0.0,0.0,42,0.00,,---,0.00,VWS V14.01,2013-10-27 12:41:00,
2013-10-27 05:46:00,56.1,32.7,29.96,West,277,0.0,0.0,41,0.00,,---,0.00,VWS V14.01,2013-10-27 12:46:00,
2013-10-27 05:51:00,56.2,33.4,29.97,West,277,0.0,0.0,42,0.00,,---,0.00,VWS V14.01,2013-10-27 12:51:00,
2013-10-27 05:56:00,56.1,32.7,29.96,West,277,0.0,0.0,41,0.00,,---,0.00,VWS V14.01,2013-10-27 12:56:00,
2013-10-27 06:01:00,56.0,33.8,29.96,West,277,0.0,0.0,43,0.00,,---,0.00,VWS V14.01,2013-10-27 13:01:00,
2013-10-27 06:06:00,55.9,32.6,29.96,West,277,0.0,0.0,41,0.00,,---,0.00,VWS V14.01,2013-10-27 13:06:00,
2013-10-27 06:11:00,56.2,32.2,29.96,West,277,0.0,0.0,40,0.00,,---,0.00,VWS V14.01,2013-10-27 13:11:00,
2013-10-27 06:16:00,56.7,31.4,29.96,West,277,0.0,0.0,38,0.00,,---,0.00,VWS V14.01,2013-10-27 13:16:00,
2013-10-27 06:21:00,57.2,31.8,29.96,West,277,0.0,0.0,38,0.00,,---,0.00,VWS V14.01,2013-10-27 13:21:00,
2013-10-27 06:26:00,57.2,33.1,29.95,West,277,0.0,0.0,40,0.00,,---,0.00,VWS V14.01,2013-10-27 13:26:00,
2013-10-27 06:31:00,56.6,33.8,29.96,West,277,0.0,0.0,42,0.00,,---,0.00,VWS V14.01,2013-10-27 13:31:00,
2013-10-27 06:36:00,56.3,33.5,29.96,West,277,0.0,0.0,42,0.00,,---,0.00,VWS V14.01,2013-10-27 13:36:00,
2013-10-27 06:41:00,56.1,33.3,29.96,West,277,0.0,0.0,42,0.00,,---,0.00,VWS V14.01,2013-10-27 13:41:00,
2013-10-27 06:46:00,55.9,34.9,29.96,West,277,0.0,0.0,45,0.00,,---,0.00,VWS V14.01,2013-10-27 13:46:00,
2013-10-27 06:51:00,55.3,34.9,29.96,West,277,0.0,0.0,46,0.00,,---,0.00,VWS V14.01,2013-10-27 13:51:00,
2013-10-27 06:56:00,54.7,35.4,29.96,West,277,0.0,0.0,48,0.00,,---,0.00,VWS V14.01,2013-10-27 13:56:00,
2013-10-27 07:01:00,54.2,36.0,29.96,West,277,0.0,0.0,50,0.00,,---,0.00,VWS V14.01,2013-10-27 14:01:00,
2013-10-27 07:06:00,54.2,36.5,29.96,West,277,0.0,0.0,51,0.00,,---,0.00,VWS V14.01,2013-10-27 14:06:00,
2013-10-27 07:11:00,54.2,37.0,29.96,West,277,0.0,0.0,52,0.00,,---,0.00,VWS V14.01,2013-10-27 14:11:00,
2013-10-27 07:16:00,54.4,37.2,29.96,West,277,0.0,0.0,52,0.00,,---,0.00,VWS V14.01,2013-10-27 14:16:00,
2013-10-27 07:21:00,54.7,37.4,29.96,West,277,0.0,0.0,52,0.00,,---,0.00,VWS V14.01,2013-10-27 14:21:00,
2013-10-27 07:26:00,55.0,38.2,29.97,West,277,0.0,0.0,53,0.00,,---,0.00,VWS V14.01,2013-10-27 14:26:00,
2013-10-27 07:31:00,56.1,38.2,29.96,West,277,0.0,0.0,51,0.00,,---,0.00,VWS V14.01,2013-10-27 14:31:00,
2013-10-27 07:36:00,57.0,39.1,29.96,West,277,0.0,0.0,51,0.00,,---,0.00,VWS V14.01,2013-10-27 14:36:00,
2013-10-27 07:41:00,57.5,39.5,29.97,West,277,0.0,0.0,51,0.00,,---,0.00,VWS V14.01,2013-10-27 14:41:00,
2013-10-27 07:46:00,57.8,40.3,29.97,West,277,0.0,0.0,52,0.00,,---,0.00,VWS V14.01,2013-10-27 14:46:00,
2013-10-27 07:51:00,58.1,40.1,29.97,West,277,0.0,0.0,51,0.00,,---,0.00,VWS V14.01,2013-10-27 14:51:00,
2013-10-27 07:56:00,58.5,39.4,29.97,West,277,0.0,0.0,49,0.00,,---,0.00,VWS V14.01,2013-10-27 14:56:00,
2013-10-27 08:01:00,58.9,38.7,29.97,West,277,0.0,0.0,47,0.00,,---,0.00,VWS V14.01,2013-10-27 15:01:00,
2013-10-27 08:06:00,59.3,42.2,29.97,West,277,0.0,0.0,53,0.00,,---,0.00,VWS V14.01,2013-10-27 15:06:00,
2013-10-27 08:11:00,59.5,42.9,29.97,West,277,0.0,0.0,54,0.00,,---,0.00,VWS V14.01,2013-10-27 15:11:00,
2013-10-27 08:16:00,61.1,40.7,29.97,West,277,0.0,0.0,47,0.00,,---,0.00,VWS V14.01,2013-10-27 15:16:00,
2013-10-27 08:21:00,63.3,43.3,29.97,West,277,0.0,0.0,48,0.00,,---,0.00,VWS V14.01,2013-10-27 15:21:00,
2013-10-27 08:26:00,65.2,42.2,29.97,West,277,0.0,0.0,43,0.00,,---,0.00,VWS V14.01,2013-10-27 15:26:00,
2013-10-27 08:31:00,66.3,41.3,29.97,West,277,0.0,0.0,40,0.00,,---,0.00,VWS V14.01,2013-10-27 15:31:00,
2013-10-27 08:36:00,67.9,39.3,29.97,West,277,0.0,0.0,35,0.00,,---,0.00,VWS V14.01,2013-10-27 15:36:00,
2013-10-27 08:41:00,68.4,39.7,29.97,West,277,0.0,0.0,35,0.00,,---,0.00,VWS V14.01,2013-10-27 15:41:00,
2013-10-27 08:46:00,68.9,40.2,29.97,West,277,0.0,0.0,35,0.00,,---,0.00,VWS V14.01,2013-10-27 15:46:00,
2013-10-27 08:51:00,69.3,40.5,29.97,West,277,0.0,0.0,35,0.00,,---,0.00,VWS V14.01,2013-10-27 15:51:00,
2013-10-27 08:56:00,70.3,39.9,29.97,West,277,0.0,0.0,33,0.00,,---,0.00,VWS V14.01,2013-10-27 15:56:00,
2013-10-27 09:01:00,71.5,40.1,29.97,West,277,0.0,0.0,32,0.00,,---,0.00,VWS V14.01,2013-10-27 16:01:00,
2013-10-27 09:06:00,72.2,37.3,29.97,West,277,0.0,0.0,28,0.00,,---,0.00,VWS V14.01,2013-10-27 16:06:00,
2013-10-27 09:11:00,72.8,37.8,29.97,West,277,0.0,0.0,28,0.00,,---,0.00,VWS V14.01,2013-10-27 16:11:00,
2013-10-27 09:16:00,73.1,38.1,29.97,West,277,0.0,0.0,28,0.00,,---,0.00,VWS V14.01,2013-10-27 16:16:00,
2013-10-27 09:21:00,74.4,36.3,29.97,West,277,0.0,0.0,25,0.00,,---,0.00,VWS V14.01,2013-10-27 16:21:00,
2013-10-27 09:25:00,75.2,37.0,29.97,West,277,0.0,0.0,25,0.00,,---,0.00,VWS V14.01,2013-10-27 16:25:00,
2013-10-27 09:30:00,75.4,37.2,29.96,West,277,0.0,1.0,25,0.00,,---,0.00,VWS V14.01,2013-10-27 16:30:00,
2013-10-27 09:35:00,75.7,37.4,29.96,West,277,0.0,1.0,25,0.00,,---,0.00,VWS V14.01,2013-10-27 16:35:00,
2013-10-27 09:40:00,76.6,36.1,29.96,West,277,0.0,0.0,23,0.00,,---,0.00,VWS V14.01,2013-10-27 16:40:00,
2013-10-27 09:45:00,77.5,36.8,29.96,West,277,0.0,0.0,23,0.00,,---,0.00,VWS V14.01,2013-10-27 16:45:00,
2013-10-27 09:50:00,77.8,34.8,29.96,West,277,0.0,1.0,21,0.00,,---,0.00,VWS V14.01,2013-10-27 16:50:00,
2013-10-27 09:55:00,78.1,36.2,29.96,West,277,0.0,0.0,22,0.00,,---,0.00,VWS V14.01,2013-10-27 16:55:00,
2013-10-27 10:00:00,78.5,35.4,29.96,West,277,0.0,0.0,21,0.00,,---,0.00,VWS V14.01,2013-10-27 17:00:00,
2013-10-27 10:05:00,78.7,35.5,29.95,WNW,296,0.0,3.0,21,0.00,,---,0.00,VWS V14.01,2013-10-27 17:05:00,
2013-10-27 10:10:00,79.2,35.9,29.95,WNW,296,0.0,0.0,21,0.00,,---,0.00,VWS V14.01,2013-10-27 17:10:00,
2013-10-27 10:15:00,79.4,34.9,29.95,WNW,292,0.0,1.0,20,0.00,,---,0.00,VWS V14.01,2013-10-27 17:15:00,
2013-10-27 10:20:00,80.4,35.7,29.95,WNW,292,0.0,0.0,20,0.00,,---,0.00,VWS V14.01,2013-10-27 17:20:00,
2013-10-27 10:25:00,81.6,35.4,29.95,WNW,292,1.0,3.0,19,0.00,,---,0.00,VWS V14.01,2013-10-27 17:25:00,
2013-10-27 10:30:00,81.5,35.3,29.95,WNW,285,3.0,4.0,19,0.00,,---,0.00,VWS V14.01,2013-10-27 17:30:00,
2013-10-27 10:35:00,81.8,35.5,29.94,WNW,286,0.0,0.0,19,0.00,,---,0.00,VWS V14.01,2013-10-27 17:35:00,
2013-10-27 10:40:00,81.8,34.2,29.94,West,270,0.0,4.0,18,0.00,,---,0.00,VWS V14.01,2013-10-27 17:40:00,
2013-10-27 10:45:00,81.7,34.1,29.94,West,270,0.0,0.0,18,0.00,,---,0.00,VWS V14.01,2013-10-27 17:45:00,
2013-10-27 10:50:00,81.2,33.7,29.94,WSW,240,0.0,0.0,18,0.00,,---,0.00,VWS V14.01,2013-10-27 17:50:00,
2013-10-27 10:55:00,81.4,35.2,29.94,WSW,248,0.0,3.0,19,0.00,,---,0.00,VWS V14.01,2013-10-27 17:55:00,
2013-10-27 11:01:00,81.8,35.5,29.94,WSW,248,0.0,0.0,19,0.00,,---,0.00,VWS V14.01,2013-10-27 18:01:00,
2013-10-27 11:06:00,83.1,39.2,29.93,WSW,248,0.0,0.0,21,0.00,,---,0.00,VWS V14.01,2013-10-27 18:06:00,
2013-10-27 11:11:00,83.3,34.0,29.93,WSW,248,0.0,0.0,17,0.00,,---,0.00,VWS V14.01,2013-10-27 18:11:00,
2013-10-27 11:16:00,83.0,35.2,29.93,WSW,257,0.0,1.0,18,0.00,,---,0.00,VWS V14.01,2013-10-27 18:16:00,
2013-10-27 11:21:00,83.6,34.2,29.93,West,268,0.0,0.0,17,0.00,,---,0.00,VWS V14.01,2013-10-27 18:21:00,
2013-10-27 11:26:00,83.4,34.1,29.92,SW,219,0.0,5.0,17,0.00,,---,0.00,VWS V14.01,2013-10-27 18:26:00,
2013-10-27 11:31:00,83.2,33.9,29.92,South,177,0.0,0.0,17,0.00,,---,0.00,VWS V14.01,2013-10-27 18:31:00,
2013-10-27 11:36:00,83.7,34.3,29.92,North,5,0.0,1.0,17,0.00,,---,0.00,VWS V14.01,2013-10-27 18:36:00,
2013-10-27 11:41:00,84.4,34.9,29.91,WNW,299,0.0,4.0,17,0.00,,---,0.00,VWS V14.01,2013-10-27 18:41:00,
2013-10-27 11:46:00,84.5,35.0,29.91,West,273,2.0,8.0,17,0.00,,---,0.00,VWS V14.01,2013-10-27 18:46:00,
2013-10-27 11:51:00,84.2,34.7,29.91,SSW,193,5.0,6.0,17,0.00,,---,0.00,VWS V14.01,2013-10-27 18:51:00,
2013-10-27 11:56:00,84.5,35.0,29.91,South,186,6.0,9.0,17,0.00,,---,0.00,VWS V14.01,2013-10-27 18:56:00,
2013-10-27 12:01:00,85.2,32.4,29.90,West,264,0.0,4.0,15,0.00,,---,0.00,VWS V14.01,2013-10-27 19:01:00,
2013-10-27 12:06:00,85.1,33.9,29.90,SW,227,0.0,1.0,16,0.00,,---,0.00,VWS V14.01,2013-10-27 19:06:00,
2013-10-27 12:11:00,84.9,30.4,29.90,SSW,198,0.0,3.0,14,0.00,,---,0.00,VWS V14.01,2013-10-27 19:11:00,
2013-10-27 12:16:00,85.2,34.0,29.89,WSW,252,2.0,2.0,16,0.00,,---,0.00,VWS V14.01,2013-10-27 19:16:00,
2013-10-27 12:21:00,85.0,33.8,29.89,West,271,0.0,1.0,16,0.00,,---,0.00,VWS V14.01,2013-10-27 19:21:00,
2013-10-27 12:26:00,85.8,31.1,29.88,WNW,295,0.0,7.0,14,0.00,,---,0.00,VWS V14.01,2013-10-27 19:26:00,
2013-10-27 12:31:00,86.0,33.0,29.88,WNW,293,0.0,2.0,15,0.00,,---,0.00,VWS V14.01,2013-10-27 19:31:00,
2013-10-27 12:36:00,85.9,32.9,29.87,West,271,0.0,3.0,15,0.00,,---,0.00,VWS V14.01,2013-10-27 19:36:00,
2013-10-27 12:41:00,86.2,31.5,29.87,West,281,0.0,3.0,14,0.00,,---,0.00,VWS V14.01,2013-10-27 19:41:00,
2013-10-27 12:46:00,86.0,33.0,29.86,WNW,301,0.0,1.0,15,0.00,,---,0.00,VWS V14.01,2013-10-27 19:46:00,
2013-10-27 12:51:00,86.6,33.5,29.86,West,276,3.0,4.0,15,0.00,,---,0.00,VWS V14.01,2013-10-27 19:51:00,
2013-10-27 12:56:00,86.5,31.7,29.86,WSW,246,8.0,12.0,14,0.00,,---,0.00,VWS V14.01,2013-10-27 19:56:00,
2013-10-27 13:01:00,86.4,29.8,29.85,SSW,201,0.0,8.0,13,0.00,,---,0.00,VWS V14.01,2013-10-27 20:01:00,
2013-10-27 13:06:00,86.5,29.9,29.85,NW,305,0.0,0.0,13,0.00,,---,0.00,VWS V14.01,2013-10-27 20:06:00,
2013-10-27 13:11:00,86.3,29.7,29.85,West,279,1.0,7.0,13,0.00,,---,0.00,VWS V14.01,2013-10-27 20:11:00,
2013-10-27 13:16:00,86.6,30.0,29.84,WNW,288,0.0,6.0,13,0.00,,---,0.00,VWS V14.01,2013-10-27 20:16:00,
2013-10-27 13:21:00,87.1,28.4,29.84,WNW,296,0.0,3.0,12,0.00,,---,0.00,VWS V14.01,2013-10-27 20:21:00,
2013-10-27 13:26:00,86.9,28.2,29.84,SE,137,0.0,3.0,12,0.00,,---,0.00,VWS V14.01,2013-10-27 20:26:00,
2013-10-27 13:31:00,86.6,28.0,29.84,WSW,240,1.0,6.0,12,0.00,,---,0.00,VWS V14.01,2013-10-27 20:31:00,
2013-10-27 13:36:00,86.4,27.9,29.83,South,169,0.0,0.0,12,0.00,,---,0.00,VWS V14.01,2013-10-27 20:36:00,
2013-10-27 13:41:00,86.8,30.1,29.83,South,190,5.0,6.0,13,0.00,,---,0.00,VWS V14.01,2013-10-27 20:41:00,
2013-10-27 13:45:00,87.3,28.5,29.83,WSW,252,5.0,10.0,12,0.00,,---,0.00,VWS V14.01,2013-10-27 20:45:00,
2013-10-27 13:50:00,86.7,26.0,29.83,SW,217,0.0,1.0,11,0.00,,---,0.00,VWS V14.01,2013-10-27 20:50:00,
2013-10-27 13:55:00,86.6,28.0,29.83,SW,225,0.0,5.0,12,0.00,,---,0.00,VWS V14.01,2013-10-27 20:55:00,
2013-10-27 14:00:00,87.5,28.7,29.82,West,272,0.0,6.0,12,0.00,,---,0.00,VWS V14.01,2013-10-27 21:00:00,
2013-10-27 14:05:00,87.5,28.7,29.82,West,267,1.0,4.0,12,0.00,,---,0.00,VWS V14.01,2013-10-27 21:05:00,
2013-10-27 14:10:00,87.6,26.7,29.82,West,260,4.0,6.0,11,0.00,,---,0.00,VWS V14.01,2013-10-27 21:10:00,
2013-10-27 14:15:00,87.4,26.5,29.82,SW,227,4.0,4.0,11,0.00,,---,0.00,VWS V14.01,2013-10-27 21:15:00,
2013-10-27 14:20:00,87.8,28.9,29.81,WSW,249,0.0,5.0,12,0.00,,---,0.00,VWS V14.01,2013-10-27 21:20:00,
2013-10-27 14:25:00,87.9,26.9,29.81,WNW,294,9.0,9.0,11,0.00,,---,0.00,VWS V14.01,2013-10-27 21:25:00,
2013-10-27 14:30:00,88.2,29.2,29.81,WNW,298,0.0,5.0,12,0.00,,---,0.00,VWS V14.01,2013-10-27 21:30:00,
2013-10-27 14:35:00,88.2,29.2,29.81,West,281,2.0,4.0,12,0.00,,---,0.00,VWS V14.01,2013-10-27 21:35:00,
2013-10-27 14:40:00,87.8,28.9,29.81,West,275,0.0,0.0,12,0.00,,---,0.00,VWS V14.01,2013-10-27 21:40:00,
2013-10-27 14:45:00,87.9,29.0,29.81,WSW,256,2.0,3.0,12,0.00,,---,0.00,VWS V14.01,2013-10-27 21:45:00,
2013-10-27 14:50:00,87.9,29.0,29.80,West,267,0.0,3.0,12,0.00,,---,0.00,VWS V14.01,2013-10-27 21:50:00,
2013-10-27 14:55:00,88.2,29.2,29.80,SSE,154,0.0,5.0,12,0.00,,---,0.00,VWS V14.01,2013-10-27 21:55:00,
2013-10-27 15:00:00,87.8,26.8,29.80,SSW,211,2.0,3.0,11,0.00,,---,0.00,VWS V14.01,2013-10-27 22:00:00,
2013-10-27 15:05:00,87.7,28.9,29.80,West,264,3.0,6.0,12,0.00,,---,0.00,VWS V14.01,2013-10-27 22:05:00,
2013-10-27 15:10:00,88.3,29.3,29.80,WSW,244,3.0,7.0,12,0.00,,---,0.00,VWS V14.01,2013-10-27 22:10:00,
2013-10-27 15:15:00,87.9,29.0,29.80,SW,220,6.0,9.0,12,0.00,,---,0.00,VWS V14.01,2013-10-27 22:15:00,
2013-10-27 15:20:00,88.1,29.2,29.80,WSW,250,0.0,7.0,12,0.00,,---,0.00,VWS V14.01,2013-10-27 22:20:00,
2013-10-27 15:25:00,88.1,29.2,29.79,West,263,0.0,1.0,12,0.00,,---,0.00,VWS V14.01,2013-10-27 22:25:00,
2013-10-27 15:30:00,88.4,29.4,29.79,WNW,284,0.0,9.0,12,0.00,,---,0.00,VWS V14.01,2013-10-27 22:30:00,
2013-10-27 15:35:00,88.5,29.5,29.79,WSW,254,0.0,2.0,12,0.00,,---,0.00,VWS V14.01,2013-10-27 22:35:00,
2013-10-27 15:40:00,88.0,29.1,29.79,SSE,166,0.0,5.0,12,0.00,,---,0.00,VWS V14.01,2013-10-27 22:40:00,
2013-10-27 15:45:00,87.7,28.9,29.78,SW,232,3.0,3.0,12,0.00,,---,0.00,VWS V14.01,2013-10-27 22:45:00,
2013-10-27 15:50:00,87.8,28.9,29.78,WSW,246,0.0,3.0,12,0.00,,---,0.00,VWS V14.01,2013-10-27 22:50:00,
2013-10-27 15:55:00,87.7,30.8,29.78,SSE,168,0.0,4.0,13,0.00,,---,0.00,VWS V14.01,2013-10-27 22:55:00,
2013-10-27 16:00:00,88.1,29.2,29.78,WSW,238,2.0,3.0,12,0.00,,---,0.00,VWS V14.01,2013-10-27 23:00:00,
2013-10-27 16:05:00,87.9,29.0,29.78,South,182,0.0,0.0,12,0.00,,---,0.00,VWS V14.01,2013-10-27 23:05:00,
2013-10-27 16:10:00,87.6,28.8,29.77,South,188,0.0,1.0,12,0.00,,---,0.00,VWS V14.01,2013-10-27 23:10:00,
2013-10-27 16:15:00,87.7,26.7,29.77,WSW,239,4.0,4.0,11,0.00,,---,0.00,VWS V14.01,2013-10-27 23:15:00,
2013-10-27 16:20:00,87.3,26.4,29.78,SW,219,0.0,10.0,11,0.00,,---,0.00,VWS V14.01,2013-10-27 23:20:00,
2013-10-27 16:25:00,87.1,26.3,29.77,West,274,8.0,9.0,11,0.00,,---,0.00,VWS V14.01,2013-10-27 23:25:00,
2013-10-27 16:30:00,87.2,26.4,29.77,West,265,1.0,2.0,11,0.00,,---,0.00,VWS V14.01,2013-10-27 23:30:00,
2013-10-27 16:35:00,87.5,24.3,29.77,SW,217,7.0,7.0,10,0.00,,---,0.00,VWS V14.01,2013-10-27 23:35:00,
2013-10-27 16:40:00,87.6,24.4,29.77,WNW,295,0.0,9.0,10,0.00,,---,0.00,VWS V14.01,2013-10-27 23:40:00,
2013-10-27 16:45:00,87.4,24.2,29.77,WSW,248,10.0,10.0,10,0.00,,---,0.00,VWS V14.01,2013-10-27 23:45:00,
2013-10-27 16:50:00,87.0,23.9,29.77,WSW,253,0.0,3.0,10,0.00,,---,0.00,VWS V14.01,2013-10-27 23:50:00,
2013-10-27 16:55:00,86.6,23.6,29.77,WSW,238,6.0,7.0,10,0.00,,---,0.00,VWS V14.01,2013-10-27 23:55:00,
2013-10-27 17:00:00,86.3,23.4,29.77,WSW,256,2.0,7.0,10,0.00,,---,0.00,VWS V14.01,2013-10-28 00:00:00,
2013-10-27 17:05:00,86.0,23.2,29.77,WSW,256,0.0,4.0,10,0.00,,---,0.00,VWS V14.01,2013-10-28 00:05:00,
2013-10-27 17:10:00,85.5,22.8,29.77,West,263,7.0,7.0,10,0.00,,---,0.00,VWS V14.01,2013-10-28 00:10:00,
2013-10-27 17:15:00,85.0,24.7,29.77,West,267,0.0,2.0,11,0.00,,---,0.00,VWS V14.01,2013-10-28 00:15:00,
2013-10-27 17:20:00,84.5,26.4,29.77,West,267,1.0,3.0,12,0.00,,---,0.00,VWS V14.01,2013-10-28 00:20:00,
2013-10-27 17:25:00,83.9,25.9,29.77,West,268,0.0,5.0,12,0.00,,---,0.00,VWS V14.01,2013-10-28 00:25:00,
2013-10-27 17:30:00,83.3,25.4,29.77,West,267,0.0,1.0,12,0.00,,---,0.00,VWS V14.01,2013-10-28 00:30:00,
2013-10-27 17:35:00,82.8,27.0,29.77,West,269,0.0,0.0,13,0.00,,---,0.00,VWS V14.01,2013-10-28 00:35:00,
2013-10-27 17:40:00,82.1,26.4,29.77,West,269,0.0,1.0,13,0.00,,---,0.00,VWS V14.01,2013-10-28 00:40:00,
2013-10-27 17:45:00,81.5,26.0,29.77,West,269,0.0,1.0,13,0.00,,---,0.00,VWS V14.01,2013-10-28 00:45:00,
2013-10-27 17:50:00,81.0,27.4,29.77,WSW,239,0.0,2.0,14,0.00,,---,0.00,VWS V14.01,2013-10-28 00:50:00,
2013-10-27 17:55:00,80.7,27.1,29.78,WNW,287,0.0,2.0,14,0.00,,---,0.00,VWS V14.01,2013-10-28 00:55:00,
2013-10-27 18:00:00,80.5,27.0,29.78,West,268,0.0,1.0,14,0.00,,---,0.00,VWS V14.01,2013-10-28 01:00:00,
2013-10-27 18:05:00,80.2,26.7,29.78,West,264,0.0,1.0,14,0.00,,---,0.00,VWS V14.01,2013-10-28 01:05:00,
2013-10-27 18:10:00,79.9,26.5,29.78,West,266,0.0,0.0,14,0.00,,---,0.00,VWS V14.01,2013-10-28 01:10:00,
2013-10-27 18:15:00,79.4,26.1,29.78,West,278,0.0,1.0,14,0.00,,---,0.00,VWS V14.01,2013-10-28 01:15:00,
2013-10-27 18:20:00,78.9,25.7,29.78,WSW,254,0.0,1.0,14,0.00,,---,0.00,VWS V14.01,2013-10-28 01:20:00,
2013-10-27 18:25:00,78.5,25.4,29.78,West,259,0.0,0.0,14,0.00,,---,0.00,VWS V14.01,2013-10-28 01:25:00,
2013-10-27 18:30:00,78.3,26.9,29.79,WNW,286,1.0,2.0,15,0.00,,---,0.00,VWS V14.01,2013-10-28 01:30:00,
2013-10-27 18:35:00,78.2,26.8,29.79,WSW,255,0.0,0.0,15,0.00,,---,0.00,VWS V14.01,2013-10-28 01:35:00,
2013-10-27 18:40:00,78.0,26.6,29.79,West,268,0.0,1.0,15,0.00,,---,0.00,VWS V14.01,2013-10-28 01:40:00,
2013-10-27 18:45:00,77.8,26.5,29.79,West,274,0.0,0.0,15,0.00,,---,0.00,VWS V14.01,2013-10-28 01:45:00,
2013-10-27 18:50:00,77.5,26.2,29.79,West,273,2.0,2.0,15,0.00,,---,0.00,VWS V14.01,2013-10-28 01:50:00,
2013-10-27 18:55:00,77.4,26.2,29.79,West,270,0.0,0.0,15,0.00,,---,0.00,VWS V14.01,2013-10-28 01:55:00,
2013-10-27 19:00:00,77.1,25.9,29.79,WNW,286,0.0,0.0,15,0.00,,---,0.00,VWS V14.01,2013-10-28 02:00:00,
2013-10-27 19:05:00,76.7,25.6,29.80,West,263,0.0,0.0,15,0.00,,---,0.00,VWS V14.01,2013-10-28 02:05:00,
2013-10-27 19:10:00,76.4,26.9,29.80,West,273,0.0,4.0,16,0.00,,---,0.00,VWS V14.01,2013-10-28 02:10:00,
2013-10-27 19:15:00,76.0,26.6,29.79,West,274,0.0,1.0,16,0.00,,---,0.00,VWS V14.01,2013-10-28 02:15:00,
2013-10-27 19:20:00,75.8,26.5,29.80,West,273,0.0,0.0,16,0.00,,---,0.00,VWS V14.01,2013-10-28 02:20:00,
2013-10-27 19:25:00,75.5,26.2,29.80,WSW,238,0.0,0.0,16,0.00,,---,0.00,VWS V14.01,2013-10-28 02:25:00,
2013-10-27 19:30:00,75.1,27.4,29.80,West,261,0.0,1.0,17,0.00,,---,0.00,VWS V14.01,2013-10-28 02:30:00,
2013-10-27 19:35:00,74.9,27.2,29.80,West,266,0.0,1.0,17,0.00,,---,0.00,VWS V14.01,2013-10-28 02:35:00,
2013-10-27 19:40:00,74.6,27.0,29.80,West,269,0.0,1.0,17,0.00,,---,0.00,VWS V14.01,2013-10-28 02:40:00,
2013-10-27 19:45:00,74.2,28.0,29.80,West,269,0.0,0.0,18,0.00,,---,0.00,VWS V14.01,2013-10-28 02:45:00,
2013-10-27 19:50:00,73.7,28.9,29.80,West,269,0.0,0.0,19,0.00,,---,0.00,VWS V14.01,2013-10-28 02:50:00,
2013-10-27 19:55:00,73.2,28.5,29.81,West,269,0.0,0.0,19,0.00,,---,0.00,VWS V14.01,2013-10-28 02:55:00,
2013-10-27 20:00:00,72.6,28.0,29.81,West,269,0.0,0.0,19,0.00,,---,0.00,VWS V14.01,2013-10-28 03:00:00,
2013-10-27 20:05:00,72.4,27.9,29.81,West,269,0.0,0.0,19,0.00,,---,0.00,VWS V14.01,2013-10-28 03:05:00,
2013-10-27 20:10:00,72.1,27.6,29.81,West,269,0.0,0.0,19,0.00,,---,0.00,VWS V14.01,2013-10-28 03:10:00,
2013-10-27 20:15:00,71.9,27.4,29.81,West,269,0.0,0.0,19,0.00,,---,0.00,VWS V14.01,2013-10-28 03:15:00,
2013-10-27 20:20:00,71.5,28.4,29.81,WSW,245,0.0,0.0,20,0.00,,---,0.00,VWS V14.01,2013-10-28 03:20:00,
2013-10-27 20:25:00,70.8,27.8,29.82,WSW,245,0.0,0.0,20,0.00,,---,0.00,VWS V14.01,2013-10-28 03:25:00,
2013-10-27 20:30:00,70.0,27.1,29.81,WSW,248,0.0,0.0,20,0.00,,---,0.00,VWS V14.01,2013-10-28 03:30:00,
2013-10-27 20:35:00,69.2,27.6,29.82,NW,319,0.0,1.0,21,0.00,,---,0.00,VWS V14.01,2013-10-28 03:35:00,
2013-10-27 20:40:00,68.4,28.1,29.82,ENE,61,0.0,1.0,22,0.00,,---,0.00,VWS V14.01,2013-10-28 03:40:00,
2013-10-27 20:45:00,68.1,26.7,29.82,ENE,61,0.0,0.0,21,0.00,,---,0.00,VWS V14.01,2013-10-28 03:45:00,
2013-10-27 20:50:00,68.0,27.8,29.82,ENE,61,0.0,0.0,22,0.00,,---,0.00,VWS V14.01,2013-10-28 03:50:00,
2013-10-27 20:55:00,67.6,28.5,29.82,ENE,61,0.0,0.0,23,0.00,,---,0.00,VWS V14.01,2013-10-28 03:55:00,
2013-10-27 21:00:00,67.2,27.1,29.82,ENE,61,0.0,0.0,22,0.00,,---,0.00,VWS V14.01,2013-10-28 04:00:00,
2013-10-27 21:01:00,67.2,27.1,29.82,ENE,61,0.0,0.0,22,0.00,,---,0.00,VWS V14.01,2013-10-28 04:01:00,
2013-10-27 21:06:00,66.7,27.8,29.82,ENE,61,0.0,0.0,23,0.00,,---,0.00,VWS V14.01,2013-10-28 04:06:00,
2013-10-27 21:11:00,66.0,29.2,29.82,ENE,61,0.0,0.0,25,0.00,,---,0.00,VWS V14.01,2013-10-28 04:11:00,
2013-10-27 21:16:00,65.5,28.8,29.82,ENE,61,0.0,0.0,25,0.00,,---,0.00,VWS V14.01,2013-10-28 04:16:00,
2013-10-27 21:21:00,64.9,29.2,29.83,ENE,61,0.0,0.0,26,0.00,,---,0.00,VWS V14.01,2013-10-28 04:21:00,
2013-10-27 21:26:00,64.7,28.1,29.83,ENE,61,0.0,0.0,25,0.00,,---,0.00,VWS V14.01,2013-10-28 04:26:00,
2013-10-27 21:31:00,64.7,29.0,29.83,ENE,61,0.0,0.0,26,0.00,,---,0.00,VWS V14.01,2013-10-28 04:31:00,
2013-10-27 21:36:00,65.0,29.3,29.83,ENE,61,0.0,0.0,26,0.00,,---,0.00,VWS V14.01,2013-10-28 04:36:00,
2013-10-27 21:41:00,64.9,29.2,29.83,ENE,61,0.0,0.0,26,0.00,,---,0.00,VWS V14.01,2013-10-28 04:41:00,
2013-10-27 21:46:00,64.9,29.2,29.84,ENE,61,0.0,0.0,26,0.00,,---,0.00,VWS V14.01,2013-10-28 04:46:00,
2013-10-27 21:51:00,64.7,30.0,29.84,ENE,61,0.0,0.0,27,0.00,,---,0.00,VWS V14.01,2013-10-28 04:51:00,
2013-10-27 21:56:00,64.2,29.5,29.84,NE,41,0.0,1.0,27,0.00,,---,0.00,VWS V14.01,2013-10-28 04:56:00,
2013-10-27 22:01:00,64.0,30.3,29.84,NE,42,0.0,0.0,28,0.00,,---,0.00,VWS V14.01,2013-10-28 05:01:00,
2013-10-27 22:06:00,63.9,31.0,29.84,NE,41,0.0,0.0,29,0.00,,---,0.00,VWS V14.01,2013-10-28 05:06:00,
2013-10-27 22:11:00,63.6,29.9,29.84,NE,41,0.0,0.0,28,0.00,,---,0.00,VWS V14.01,2013-10-28 05:11:00,
2013-10-27 22:16:00,63.4,28.9,29.84,NE,41,0.0,0.0,27,0.00,,---,0.00,VWS V14.01,2013-10-28 05:16:00,
2013-10-27 22:21:00,63.7,28.2,29.84,NE,41,0.0,0.0,26,0.00,,---,0.00,VWS V14.01,2013-10-28 05:21:00,
2013-10-27 22:26:00,63.7,29.1,29.84,NE,41,0.0,0.0,27,0.00,,---,0.00,VWS V14.01,2013-10-28 05:26:00,
2013-10-27 22:31:00,63.2,29.6,29.85,NE,42,0.0,0.0,28,0.00,,---,0.00,VWS V14.01,2013-10-28 05:31:00,
2013-10-27 22:36:00,62.4,28.9,29.85,NE,41,0.0,0.0,28,0.00,,---,0.00,VWS V14.01,2013-10-28 05:36:00,
2013-10-27 22:41:00,62.3,27.9,29.84,NE,41,0.0,0.0,27,0.00,,---,0.00,VWS V14.01,2013-10-28 05:41:00,
2013-10-27 22:46:00,62.4,29.8,29.84,NE,41,0.0,0.0,29,0.00,,---,0.00,VWS V14.01,2013-10-28 05:46:00,
2013-10-27 22:51:00,62.1,29.5,29.85,NE,41,0.0,0.0,29,0.00,,---,0.00,VWS V14.01,2013-10-28 05:51:00,
2013-10-27 22:56:00,61.8,28.4,29.85,NE,41,0.0,0.0,28,0.00,,---,0.00,VWS V14.01,2013-10-28 05:56:00,
2013-10-27 23:01:00,61.7,30.0,29.85,NE,41,0.0,0.0,30,0.00,,---,0.00,VWS V14.01,2013-10-28 06:01:00,
2013-10-27 23:06:00,61.6,27.3,29.85,NE,41,0.0,0.0,27,0.00,,---,0.00,VWS V14.01,2013-10-28 06:06:00,
2013-10-27 23:11:00,61.8,25.6,29.85,NE,41,0.0,0.0,25,0.00,,---,0.00,VWS V14.01,2013-10-28 06:11:00,
2013-10-27 23:16:00,62.8,26.5,29.85,NE,41,0.0,0.0,25,0.00,,---,0.00,VWS V14.01,2013-10-28 06:16:00,
2013-10-27 23:21:00,63.0,25.7,29.85,NE,41,0.0,0.0,24,0.00,,---,0.00,VWS V14.01,2013-10-28 06:21:00,
2013-10-27 23:26:00,63.0,26.6,29.85,NE,41,0.0,0.0,25,0.00,,---,0.00,VWS V14.01,2013-10-28 06:26:00,
2013-10-27 23:31:00,62.5,29.0,29.85,NE,41,0.0,0.0,28,0.00,,---,0.00,VWS V14.01,2013-10-28 06:31:00,
2013-10-27 23:36:00,61.8,30.1,29.85,NE,41,0.0,0.0,30,0.00,,---,0.00,VWS V14.01,2013-10-28 06:36:00,
2013-10-27 23:41:00,61.2,29.5,29.85,NE,41,0.0,0.0,30,0.00,,---,0.00,VWS V14.01,2013-10-28 06:41:00,
2013-10-27 23:46:00,61.1,30.3,29.84,NE,41,0.0,0.0,31,0.00,,---,0.00,VWS V14.01,2013-10-28 06:46:00,
2013-10-27 23:51:00,60.9,31.6,29.84,NE,41,0.0,0.0,33,0.00,,---,0.00,VWS V14.01,2013-10-28 06:51:00,
2013-10-27 23:56:00,60.8,32.3,29.84,NE,41,0.0,0.0,34,0.00,,---,0.00,VWS V14.01,2013-10-28 06:56:00,